»·PEaware :: N204LE KPHX-KBUR

N204LE :: KPHX-KBUR

FLIGHT INFORMATION

Flight Status: Arrived
Operator: Privately registered:
United States
More flights under this callsign
Pilot: Bill F. (18685)
Aircraft: CESSNA 550 CITATION 2/S2/BRAVO
(C550)
More flights by this aircraft type
Origin: KPHX Phoenix Sky Harbor Intl
United States
Destination: KBUR Bob Hope-Burbank
United States
More flights between these airports :: More routes between these airports
Route: +ZEPER2 RRSTA EED JANNY5
File this flight plan on PilotEdge
Remarks:
Altitude:
(Current/Filed)
32,000ft
Speed:
(Current/Filed)
276kts
Departed: 23-Jun-20 06:26 PM
Arrived: 23-Jun-20 07:46 PM
Distance/Time
Traveled:
320nm/1:20
Distance/Time
To Go:
Arrived

Flight Plot

Page will automatically refresh every two minutes.

Flight plan parsing failed; only flown route is shown


Map Options




Map Legend


Flown Route
Filed Route
Departure Airport
Arrival Airport
Navaid (VOR, NDB)
Fix

Horizontal Profiles

Position Reports

Time Latitude Longitude Heading Altitude Ground
Speed
23-Jun-20 17:59 33.426834 -112.024429 7 1114ft 0kts
23-Jun-20 18:00 33.426834 -112.024429 7 1114ft 0kts
23-Jun-20 18:01 33.426834 -112.024429 7 1114ft 0kts
23-Jun-20 18:02 33.426834 -112.024429 7 1114ft 0kts
23-Jun-20 18:03 33.426834 -112.024429 7 1114ft 0kts
23-Jun-20 18:04 33.426834 -112.024429 7 1114ft 0kts
23-Jun-20 18:05 33.426835 -112.024429 7 1114ft 0kts
23-Jun-20 18:06 33.426835 -112.024429 7 1114ft 0kts
23-Jun-20 18:07 33.426834 -112.024429 7 1114ft 0kts
23-Jun-20 18:08 33.426835 -112.024429 7 1114ft 0kts
23-Jun-20 18:09 33.426835 -112.024429 7 1114ft 0kts
23-Jun-20 18:10 33.426835 -112.024429 7 1114ft 0kts
23-Jun-20 18:11 33.426835 -112.024429 7 1114ft 0kts
23-Jun-20 18:12 33.426835 -112.024429 7 1114ft 0kts
23-Jun-20 18:13 33.426835 -112.024429 7 1114ft 0kts
23-Jun-20 18:14 33.426835 -112.024429 7 1114ft 0kts
23-Jun-20 18:15 33.426835 -112.024429 7 1114ft 0kts
23-Jun-20 18:16 33.426835 -112.024429 7 1114ft 0kts
23-Jun-20 18:17 33.426835 -112.024429 7 1114ft 0kts
23-Jun-20 18:18 33.427763 -112.023331 89 1114ft 17kts
23-Jun-20 18:19 33.427741 -112.016178 90 1114ft 19kts
23-Jun-20 18:20 33.427738 -112.009596 89 1114ft 19kts
23-Jun-20 18:21 33.429332 -112.004963 41 1114ft 12kts
23-Jun-20 18:22 33.429770 -112.001884 141 1114ft 0kts
23-Jun-20 18:23 33.429770 -112.001884 141 1114ft 0kts
23-Jun-20 18:24 33.429248 -112.001771 194 1114ft 14kts
23-Jun-20 18:25 33.429584 -112.031221 273 2041ft 140kts
23-Jun-20 18:26 33.429778 -112.085646 270 4573ft 186kts
23-Jun-20 18:27 33.435352 -112.159043 292 6386ft 257kts
23-Jun-20 18:28 33.496646 -112.196110 0 8728ft 271kts
23-Jun-20 18:29 33.573567 -112.199352 354 10423ft 278kts
23-Jun-20 18:30 33.651300 -112.212766 344 11998ft 283kts
23-Jun-20 18:31 33.728653 -112.237887 344 13386ft 290kts
23-Jun-20 18:32 33.807689 -112.263465 344 14660ft 295kts
23-Jun-20 18:33 33.887948 -112.289422 343 15822ft 300kts
23-Jun-20 18:34 33.969624 -112.315888 343 16882ft 304kts
23-Jun-20 18:35 34.047763 -112.354617 319 17839ft 305kts
23-Jun-20 18:36 34.113772 -112.421179 318 18746ft 308kts
23-Jun-20 18:37 34.179988 -112.488050 318 19598ft 310kts
23-Jun-20 18:38 34.246734 -112.555388 318 20395ft 312kts
23-Jun-20 18:39 34.313838 -112.622891 318 21113ft 314kts
23-Jun-20 18:40 34.381664 -112.691592 317 21786ft 316kts
23-Jun-20 18:41 34.449612 -112.760586 317 22400ft 318kts
23-Jun-20 18:42 34.518071 -112.830247 317 22984ft 320kts
23-Jun-20 18:43 34.584990 -112.899064 314 23789ft 313kts
23-Jun-20 18:44 34.650123 -112.970682 313 24362ft 313kts
23-Jun-20 18:45 34.711634 -113.044655 288 24886ft 302kts
23-Jun-20 18:46 34.716624 -113.145705 272 25280ft 299kts
23-Jun-20 18:47 34.721595 -113.246445 271 25856ft 294kts
23-Jun-20 18:48 34.725778 -113.346901 271 26198ft 296kts
23-Jun-20 18:49 34.729793 -113.447488 271 26536ft 297kts
23-Jun-20 18:50 34.733750 -113.548739 272 26839ft 298kts
23-Jun-20 18:51 34.737613 -113.649720 272 27109ft 298kts
23-Jun-20 18:52 34.741440 -113.751926 271 27454ft 298kts
23-Jun-20 18:53 34.745110 -113.852208 272 27912ft 297kts
23-Jun-20 18:54 34.748731 -113.953501 272 28105ft 303kts
23-Jun-20 18:55 34.752378 -114.057973 272 28060ft 311kts
23-Jun-20 18:56 34.756079 -114.164278 272 28043ft 316kts
23-Jun-20 18:57 34.759666 -114.272021 272 28025ft 318kts
23-Jun-20 18:58 34.763141 -114.380471 272 28024ft 319kts
23-Jun-20 18:59 34.766514 -114.488882 272 28023ft 319kts
23-Jun-20 19:00 34.768897 -114.597598 271 28022ft 320kts
23-Jun-20 19:01 34.771277 -114.706933 271 28029ft 320kts
23-Jun-20 19:02 34.773581 -114.816276 271 28029ft 321kts
23-Jun-20 19:03 34.775780 -114.925301 271 28028ft 321kts
23-Jun-20 19:04 34.777903 -115.035056 272 28027ft 321kts
23-Jun-20 19:05 34.779954 -115.144622 273 28025ft 323kts
23-Jun-20 19:06 34.781921 -115.254750 274 28024ft 326kts
23-Jun-20 19:07 34.783800 -115.365777 274 28024ft 327kts
23-Jun-20 19:08 34.785585 -115.477387 274 28036ft 328kts
23-Jun-20 19:09 34.787333 -115.590594 274 27158ft 352kts
23-Jun-20 19:10 34.788968 -115.709198 273 27071ft 342kts
23-Jun-20 19:11 34.790510 -115.826126 273 26853ft 340kts
23-Jun-20 19:12 34.792777 -115.942044 273 24115ft 348kts
23-Jun-20 19:13 34.794697 -116.049646 274 23970ft 293kts
23-Jun-20 19:14 34.796374 -116.144145 274 23970ft 266kts
23-Jun-20 19:15 34.797850 -116.231021 274 23952ft 249kts
23-Jun-20 19:16 34.795798 -116.314970 271 23272ft 272kts
23-Jun-20 19:17 34.792587 -116.405281 271 22898ft 255kts
23-Jun-20 19:18 34.789723 -116.490472 271 22901ft 265kts
23-Jun-20 19:19 34.785382 -116.588034 266 22899ft 307kts
23-Jun-20 19:20 34.774097 -116.696356 265 22887ft 320kts
23-Jun-20 19:21 34.764428 -116.793508 266 21481ft 267kts
23-Jun-20 19:22 34.755083 -116.889572 265 20078ft 293kts
23-Jun-20 19:23 34.745021 -116.989043 266 19245ft 307kts
23-Jun-20 19:24 34.734445 -117.092745 259 18953ft 300kts
23-Jun-20 19:25 34.724057 -117.193478 259 18955ft 311kts
23-Jun-20 19:26 34.712687 -117.303095 259 18956ft 336kts
23-Jun-20 19:27 34.700642 -117.418572 259 18968ft 350kts
23-Jun-20 19:28 34.688091 -117.537411 259 18994ft 356kts
23-Jun-20 19:29 34.675261 -117.657673 259 19010ft 358kts
23-Jun-20 19:30 34.663088 -117.772700 259 17419ft 346kts
23-Jun-20 19:31 34.650958 -117.885985 260 15583ft 331kts
23-Jun-20 19:32 34.639194 -117.993660 260 14070ft 294kts
23-Jun-20 19:33 34.625240 -118.090998 253 13280ft 301kts
23-Jun-20 19:35 34.603611 -118.189290 253 13029ft 299kts
23-Jun-20 19:36 34.581492 -118.288397 253 12025ft 297kts
23-Jun-20 19:37 34.560005 -118.384293 253 9743ft 295kts
23-Jun-20 19:38 34.512706 -118.455413 203 7452ft 281kts
23-Jun-20 19:39 34.445488 -118.488663 180 6950ft 246kts
23-Jun-20 19:40 34.371384 -118.482679 174 5197ft 263kts
23-Jun-20 19:41 34.312066 -118.459608 147 4851ft 198kts
23-Jun-20 19:42 34.279265 -118.419703 123 4027ft 146kts
23-Jun-20 19:43 34.258944 -118.383227 138 2976ft 123kts
23-Jun-20 19:44 34.233047 -118.366993 159 1698ft 96kts
23-Jun-20 19:45 34.208105 -118.359268 165 785ft 82kts
23-Jun-20 19:46 34.198904 -118.357681 275 781ft 0kts
23-Jun-20 19:47 34.199301 -118.358029 342 781ft 8kts
23-Jun-20 19:48 34.200136 -118.359445 345 781ft 0kts
23-Jun-20 19:49 34.200136 -118.359445 345 781ft 0kts
23-Jun-20 19:50 34.200136 -118.359445 345 781ft 0kts
23-Jun-20 19:51 34.200136 -118.359445 345 781ft 0kts
23-Jun-20 19:51 34.200136 -118.359445 345 781ft 0kts
23-Jun-20 19:53 34.200136 -118.359445 345 781ft 0kts
23-Jun-20 19:54 34.200136 -118.359445 345 781ft 0kts
23-Jun-20 19:54 34.200136 -118.359445 345 781ft 0kts
23-Jun-20 19:55 34.200136 -118.359445 345 781ft 0kts

Navigation Log

Ident Type
Flight plan parsing failed, navigation log unavailable